sensor_id;sensor_type;location;lat;lon;timestamp;P1;durP1;ratioP1;P2;durP2;ratioP2
50853;SDS011;44154;45.506;-122.806;2022-12-18T00:01:05;3.50;;;1.00;;
50853;SDS011;44154;45.506;-122.806;2022-12-18T00:03:40;5.20;;;1.23;;
50853;SDS011;44154;45.506;-122.806;2022-12-18T00:06:07;5.05;;;1.65;;
50853;SDS011;44154;45.506;-122.806;2022-12-18T00:08:34;3.90;;;1.83;;
50853;SDS011;44154;45.506;-122.806;2022-12-18T00:11:04;3.60;;;1.75;;
50853;SDS011;44154;45.506;-122.806;2022-12-18T00:13:32;2.83;;;1.50;;
50853;SDS011;44154;45.506;-122.806;2022-12-18T00:16:03;3.40;;;1.70;;
50853;SDS011;44154;45.506;-122.806;2022-12-18T00:18:31;2.40;;;1.23;;
50853;SDS011;44154;45.506;-122.806;2022-12-18T00:20:59;2.15;;;1.20;;
50853;SDS011;44154;45.506;-122.806;2022-12-18T00:23:29;1.83;;;1.05;;
50853;SDS011;44154;45.506;-122.806;2022-12-18T00:25:59;2.13;;;1.20;;
50853;SDS011;44154;45.506;-122.806;2022-12-18T00:28:26;2.15;;;1.30;;
50853;SDS011;44154;45.506;-122.806;2022-12-18T00:31:02;3.10;;;1.55;;
50853;SDS011;44154;45.506;-122.806;2022-12-18T00:33:30;3.65;;;1.73;;
50853;SDS011;44154;45.506;-122.806;2022-12-18T00:36:01;3.00;;;1.20;;
50853;SDS011;44154;45.506;-122.806;2022-12-18T00:38:27;3.67;;;1.35;;
50853;SDS011;44154;45.506;-122.806;2022-12-18T00:40:53;2.25;;;1.30;;
50853;SDS011;44154;45.506;-122.806;2022-12-18T00:43:20;2.17;;;1.30;;
50853;SDS011;44154;45.506;-122.806;2022-12-18T00:45:46;1.80;;;1.13;;
50853;SDS011;44154;45.506;-122.806;2022-12-18T00:48:12;1.52;;;0.82;;
50853;SDS011;44154;45.506;-122.806;2022-12-18T00:50:38;3.58;;;1.52;;
50853;SDS011;44154;45.506;-122.806;2022-12-18T00:53:04;7.00;;;1.73;;
50853;SDS011;44154;45.506;-122.806;2022-12-18T00:55:31;4.35;;;1.33;;
50853;SDS011;44154;45.506;-122.806;2022-12-18T00:57:57;4.80;;;1.40;;
50853;SDS011;44154;45.506;-122.806;2022-12-18T01:00:23;3.92;;;1.40;;
50853;SDS011;44154;45.506;-122.806;2022-12-18T01:02:50;4.30;;;2.30;;
50853;SDS011;44154;45.506;-122.806;2022-12-18T01:05:16;6.65;;;2.00;;
50853;SDS011;44154;45.506;-122.806;2022-12-18T01:07:42;4.50;;;1.77;;
50853;SDS011;44154;45.506;-122.806;2022-12-18T01:10:09;8.43;;;2.42;;
50853;SDS011;44154;45.506;-122.806;2022-12-18T01:12:37;9.70;;;2.80;;
50853;SDS011;44154;45.506;-122.806;2022-12-18T01:15:04;8.02;;;2.60;;
50853;SDS011;44154;45.506;-122.806;2022-12-18T01:17:32;10.80;;;3.65;;
50853;SDS011;44154;45.506;-122.806;2022-12-18T01:19:58;10.07;;;6.78;;
50853;SDS011;44154;45.506;-122.806;2022-12-18T01:22:24;12.75;;;7.07;;
50853;SDS011;44154;45.506;-122.806;2022-12-18T01:24:50;21.27;;;18.50;;
50853;SDS011;44154;45.506;-122.806;2022-12-18T01:27:16;37.35;;;33.85;;
50853;SDS011;44154;45.506;-122.806;2022-12-18T01:29:43;36.05;;;32.28;;
50853;SDS011;44154;45.506;-122.806;2022-12-18T01:32:09;31.70;;;28.50;;
50853;SDS011;44154;45.506;-122.806;2022-12-18T01:34:36;35.83;;;32.45;;
50853;SDS011;44154;45.506;-122.806;2022-12-18T01:37:03;33.35;;;30.15;;
50853;SDS011;44154;45.506;-122.806;2022-12-18T01:39:30;32.83;;;29.50;;
50853;SDS011;44154;45.506;-122.806;2022-12-18T01:42:00;32.42;;;28.45;;
50853;SDS011;44154;45.506;-122.806;2022-12-18T01:44:51;33.60;;;29.58;;
50853;SDS011;44154;45.506;-122.806;2022-12-18T01:52:48;29.25;;;25.23;;
50853;SDS011;44154;45.506;-122.806;2022-12-18T01:55:16;23.75;;;19.38;;
50853;SDS011;44154;45.506;-122.806;2022-12-18T01:57:45;20.70;;;18.55;;
50853;SDS011;44154;45.506;-122.806;2022-12-18T02:00:15;20.92;;;18.73;;
50853;SDS011;44154;45.506;-122.806;2022-12-18T02:02:45;21.52;;;19.17;;
50853;SDS011;44154;45.506;-122.806;2022-12-18T02:05:12;29.42;;;20.30;;
50853;SDS011;44154;45.506;-122.806;2022-12-18T02:10:41;43.10;;;30.60;;
50853;SDS011;44154;45.506;-122.806;2022-12-18T02:18:41;49.47;;;32.63;;
50853;SDS011;44154;45.506;-122.806;2022-12-18T02:27:05;51.33;;;33.80;;
50853;SDS011;44154;45.506;-122.806;2022-12-18T02:29:35;49.22;;;34.00;;
50853;SDS011;44154;45.506;-122.806;2022-12-18T02:32:14;38.10;;;26.88;;
50853;SDS011;44154;45.506;-122.806;2022-12-18T02:34:43;38.10;;;27.33;;
50853;SDS011;44154;45.506;-122.806;2022-12-18T02:37:12;45.22;;;28.70;;
50853;SDS011;44154;45.506;-122.806;2022-12-18T02:39:42;40.10;;;25.77;;
50853;SDS011;44154;45.506;-122.806;2022-12-18T02:42:10;36.03;;;27.20;;
50853;SDS011;44154;45.506;-122.806;2022-12-18T02:44:44;34.33;;;26.10;;
50853;SDS011;44154;45.506;-122.806;2022-12-18T02:47:12;34.28;;;25.05;;
50853;SDS011;44154;45.506;-122.806;2022-12-18T03:00:41;27.42;;;19.38;;
50853;SDS011;44154;45.506;-122.806;2022-12-18T03:05:58;23.55;;;17.63;;
50853;SDS011;44154;45.506;-122.806;2022-12-18T03:08:31;27.40;;;18.27;;
50853;SDS011;44154;45.506;-122.806;2022-12-18T03:11:05;26.50;;;18.30;;
50853;SDS011;44154;45.506;-122.806;2022-12-18T03:13:45;26.80;;;17.83;;
50853;SDS011;44154;45.506;-122.806;2022-12-18T03:16:28;26.17;;;17.52;;
50853;SDS011;44154;45.506;-122.806;2022-12-18T03:19:05;25.77;;;16.73;;
50853;SDS011;44154;45.506;-122.806;2022-12-18T03:21:54;24.92;;;15.93;;
50853;SDS011;44154;45.506;-122.806;2022-12-18T03:24:22;23.77;;;15.70;;
50853;SDS011;44154;45.506;-122.806;2022-12-18T03:26:52;27.30;;;16.58;;
50853;SDS011;44154;45.506;-122.806;2022-12-18T03:29:28;21.67;;;14.13;;
50853;SDS011;44154;45.506;-122.806;2022-12-18T03:31:59;27.40;;;14.80;;
50853;SDS011;44154;45.506;-122.806;2022-12-18T03:34:38;24.48;;;14.50;;
50853;SDS011;44154;45.506;-122.806;2022-12-18T03:37:07;21.08;;;13.10;;
50853;SDS011;44154;45.506;-122.806;2022-12-18T03:39:34;19.38;;;13.32;;
50853;SDS011;44154;45.506;-122.806;2022-12-18T03:42:25;21.08;;;14.43;;
50853;SDS011;44154;45.506;-122.806;2022-12-18T03:52:51;17.85;;;10.93;;
50853;SDS011;44154;45.506;-122.806;2022-12-18T03:55:30;18.23;;;11.02;;
50853;SDS011;44154;45.506;-122.806;2022-12-18T03:58:00;12.55;;;10.32;;
50853;SDS011;44154;45.506;-122.806;2022-12-18T04:00:30;15.43;;;11.85;;
50853;SDS011;44154;45.506;-122.806;2022-12-18T04:02:57;14.35;;;10.27;;
50853;SDS011;44154;45.506;-122.806;2022-12-18T04:05:26;16.35;;;10.10;;
50853;SDS011;44154;45.506;-122.806;2022-12-18T04:07:55;15.48;;;9.93;;
50853;SDS011;44154;45.506;-122.806;2022-12-18T04:10:22;17.10;;;10.00;;
50853;SDS011;44154;45.506;-122.806;2022-12-18T04:12:48;14.82;;;9.82;;
50853;SDS011;44154;45.506;-122.806;2022-12-18T04:15:15;12.75;;;8.70;;
50853;SDS011;44154;45.506;-122.806;2022-12-18T04:17:43;13.70;;;8.68;;
50853;SDS011;44154;45.506;-122.806;2022-12-18T04:20:13;10.48;;;7.15;;
50853;SDS011;44154;45.506;-122.806;2022-12-18T04:22:40;11.95;;;7.93;;
50853;SDS011;44154;45.506;-122.806;2022-12-18T04:25:06;9.60;;;6.78;;
50853;SDS011;44154;45.506;-122.806;2022-12-18T04:27:33;8.73;;;7.03;;
50853;SDS011;44154;45.506;-122.806;2022-12-18T04:29:59;9.93;;;7.30;;
50853;SDS011;44154;45.506;-122.806;2022-12-18T04:32:25;9.63;;;6.72;;
50853;SDS011;44154;45.506;-122.806;2022-12-18T04:34:51;11.27;;;7.10;;
50853;SDS011;44154;45.506;-122.806;2022-12-18T04:37:17;9.63;;;6.72;;
50853;SDS011;44154;45.506;-122.806;2022-12-18T04:39:44;7.38;;;5.50;;
50853;SDS011;44154;45.506;-122.806;2022-12-18T04:42:10;7.47;;;5.40;;
50853;SDS011;44154;45.506;-122.806;2022-12-18T04:44:36;6.93;;;5.75;;
50853;SDS011;44154;45.506;-122.806;2022-12-18T04:47:02;7.85;;;5.65;;
50853;SDS011;44154;45.506;-122.806;2022-12-18T04:49:28;6.40;;;5.50;;
50853;SDS011;44154;45.506;-122.806;2022-12-18T04:51:55;8.25;;;6.05;;
50853;SDS011;44154;45.506;-122.806;2022-12-18T04:54:21;6.50;;;5.30;;
50853;SDS011;44154;45.506;-122.806;2022-12-18T04:56:48;9.68;;;5.28;;
50853;SDS011;44154;45.506;-122.806;2022-12-18T04:59:14;9.10;;;6.70;;
50853;SDS011;44154;45.506;-122.806;2022-12-18T05:01:40;8.88;;;7.03;;
50853;SDS011;44154;45.506;-122.806;2022-12-18T05:04:06;10.30;;;7.55;;
50853;SDS011;44154;45.506;-122.806;2022-12-18T05:06:32;12.88;;;8.18;;
50853;SDS011;44154;45.506;-122.806;2022-12-18T05:08:59;9.25;;;7.22;;
50853;SDS011;44154;45.506;-122.806;2022-12-18T05:11:25;7.53;;;6.03;;
50853;SDS011;44154;45.506;-122.806;2022-12-18T05:13:51;7.60;;;5.93;;
50853;SDS011;44154;45.506;-122.806;2022-12-18T05:16:17;6.65;;;5.88;;
50853;SDS011;44154;45.506;-122.806;2022-12-18T05:18:43;6.20;;;5.18;;
50853;SDS011;44154;45.506;-122.806;2022-12-18T05:21:09;8.77;;;6.15;;
50853;SDS011;44154;45.506;-122.806;2022-12-18T05:23:36;7.05;;;5.68;;
50853;SDS011;44154;45.506;-122.806;2022-12-18T05:26:03;6.43;;;5.63;;
50853;SDS011;44154;45.506;-122.806;2022-12-18T05:28:31;9.10;;;5.03;;
50853;SDS011;44154;45.506;-122.806;2022-12-18T05:30:59;15.57;;;13.90;;
50853;SDS011;44154;45.506;-122.806;2022-12-18T05:33:29;16.67;;;13.75;;
50853;SDS011;44154;45.506;-122.806;2022-12-18T05:35:57;13.70;;;12.00;;
50853;SDS011;44154;45.506;-122.806;2022-12-18T05:38:27;10.30;;;8.55;;
50853;SDS011;44154;45.506;-122.806;2022-12-18T05:40:55;12.52;;;10.13;;
50853;SDS011;44154;45.506;-122.806;2022-12-18T05:43:22;10.05;;;8.95;;
50853;SDS011;44154;45.506;-122.806;2022-12-18T05:45:49;11.80;;;9.20;;
50853;SDS011;44154;45.506;-122.806;2022-12-18T05:48:16;11.80;;;9.20;;
50853;SDS011;44154;45.506;-122.806;2022-12-18T05:50:43;11.00;;;9.73;;
50853;SDS011;44154;45.506;-122.806;2022-12-18T05:53:11;10.30;;;9.15;;
50853;SDS011;44154;45.506;-122.806;2022-12-18T05:55:38;9.77;;;8.70;;
50853;SDS011;44154;45.506;-122.806;2022-12-18T05:58:06;12.63;;;11.18;;
50853;SDS011;44154;45.506;-122.806;2022-12-18T06:00:36;15.88;;;14.20;;
50853;SDS011;44154;45.506;-122.806;2022-12-18T06:03:05;13.57;;;12.18;;
50853;SDS011;44154;45.506;-122.806;2022-12-18T06:05:36;10.77;;;9.68;;
50853;SDS011;44154;45.506;-122.806;2022-12-18T06:08:07;10.02;;;8.95;;
50853;SDS011;44154;45.506;-122.806;2022-12-18T06:10:33;10.63;;;8.98;;
50853;SDS011;44154;45.506;-122.806;2022-12-18T06:13:00;10.40;;;9.18;;
50853;SDS011;44154;45.506;-122.806;2022-12-18T06:15:26;10.32;;;8.88;;
50853;SDS011;44154;45.506;-122.806;2022-12-18T06:17:53;10.50;;;8.48;;
50853;SDS011;44154;45.506;-122.806;2022-12-18T06:20:19;10.32;;;7.93;;
50853;SDS011;44154;45.506;-122.806;2022-12-18T06:22:46;9.45;;;8.20;;
50853;SDS011;44154;45.506;-122.806;2022-12-18T06:25:12;10.00;;;8.30;;
50853;SDS011;44154;45.506;-122.806;2022-12-18T06:27:38;9.05;;;8.10;;
50853;SDS011;44154;45.506;-122.806;2022-12-18T06:30:05;8.55;;;7.60;;
50853;SDS011;44154;45.506;-122.806;2022-12-18T06:32:32;10.60;;;9.52;;
50853;SDS011;44154;45.506;-122.806;2022-12-18T06:34:58;9.68;;;8.68;;
50853;SDS011;44154;45.506;-122.806;2022-12-18T06:37:24;8.65;;;7.47;;
50853;SDS011;44154;45.506;-122.806;2022-12-18T06:39:51;8.40;;;6.75;;
50853;SDS011;44154;45.506;-122.806;2022-12-18T06:42:21;7.15;;;5.93;;
50853;SDS011;44154;45.506;-122.806;2022-12-18T06:44:47;8.43;;;6.75;;
50853;SDS011;44154;45.506;-122.806;2022-12-18T06:47:13;7.55;;;6.50;;
50853;SDS011;44154;45.506;-122.806;2022-12-18T06:49:39;7.47;;;6.50;;
50853;SDS011;44154;45.506;-122.806;2022-12-18T06:52:06;7.22;;;6.53;;
50853;SDS011;44154;45.506;-122.806;2022-12-18T06:54:32;7.22;;;6.47;;
50853;SDS011;44154;45.506;-122.806;2022-12-18T06:56:58;9.40;;;6.85;;
50853;SDS011;44154;45.506;-122.806;2022-12-18T06:59:24;8.88;;;6.55;;
50853;SDS011;44154;45.506;-122.806;2022-12-18T07:01:50;8.57;;;6.50;;
50853;SDS011;44154;45.506;-122.806;2022-12-18T07:04:16;9.75;;;6.72;;
50853;SDS011;44154;45.506;-122.806;2022-12-18T07:06:43;9.77;;;6.15;;
50853;SDS011;44154;45.506;-122.806;2022-12-18T07:09:09;10.70;;;6.38;;
50853;SDS011;44154;45.506;-122.806;2022-12-18T07:11:35;8.57;;;7.03;;
50853;SDS011;44154;45.506;-122.806;2022-12-18T07:14:01;8.70;;;6.30;;
50853;SDS011;44154;45.506;-122.806;2022-12-18T07:16:27;10.25;;;6.80;;
50853;SDS011;44154;45.506;-122.806;2022-12-18T07:18:54;8.25;;;6.57;;
50853;SDS011;44154;45.506;-122.806;2022-12-18T07:21:21;7.68;;;6.50;;
50853;SDS011;44154;45.506;-122.806;2022-12-18T07:23:48;9.00;;;6.65;;
50853;SDS011;44154;45.506;-122.806;2022-12-18T07:26:16;8.23;;;6.72;;
50853;SDS011;44154;45.506;-122.806;2022-12-18T07:28:43;7.90;;;6.50;;
50853;SDS011;44154;45.506;-122.806;2022-12-18T07:31:11;8.05;;;6.20;;
50853;SDS011;44154;45.506;-122.806;2022-12-18T07:33:39;7.82;;;5.80;;
50853;SDS011;44154;45.506;-122.806;2022-12-18T07:36:06;8.48;;;5.45;;
50853;SDS011;44154;45.506;-122.806;2022-12-18T07:38:35;7.50;;;5.15;;
50853;SDS011;44154;45.506;-122.806;2022-12-18T07:41:12;9.15;;;5.18;;
50853;SDS011;44154;45.506;-122.806;2022-12-18T07:43:39;6.65;;;5.00;;
50853;SDS011;44154;45.506;-122.806;2022-12-18T07:46:06;6.20;;;4.32;;
50853;SDS011;44154;45.506;-122.806;2022-12-18T07:48:34;5.18;;;4.50;;
50853;SDS011;44154;45.506;-122.806;2022-12-18T07:51:00;7.07;;;5.00;;
50853;SDS011;44154;45.506;-122.806;2022-12-18T07:53:29;5.60;;;4.68;;
50853;SDS011;44154;45.506;-122.806;2022-12-18T07:55:56;7.43;;;4.97;;
50853;SDS011;44154;45.506;-122.806;2022-12-18T07:58:23;6.45;;;4.88;;
50853;SDS011;44154;45.506;-122.806;2022-12-18T08:00:50;6.15;;;4.55;;
50853;SDS011;44154;45.506;-122.806;2022-12-18T08:03:17;5.78;;;4.80;;
50853;SDS011;44154;45.506;-122.806;2022-12-18T08:05:44;6.20;;;4.70;;
50853;SDS011;44154;45.506;-122.806;2022-12-18T08:08:10;5.88;;;4.43;;
50853;SDS011;44154;45.506;-122.806;2022-12-18T08:10:37;5.38;;;3.97;;
50853;SDS011;44154;45.506;-122.806;2022-12-18T08:13:04;4.00;;;3.60;;
50853;SDS011;44154;45.506;-122.806;2022-12-18T08:15:30;5.00;;;3.80;;
50853;SDS011;44154;45.506;-122.806;2022-12-18T08:17:56;4.80;;;3.92;;
50853;SDS011;44154;45.506;-122.806;2022-12-18T08:20:22;4.82;;;3.97;;
50853;SDS011;44154;45.506;-122.806;2022-12-18T08:22:49;4.82;;;3.80;;
50853;SDS011;44154;45.506;-122.806;2022-12-18T08:25:15;4.55;;;3.63;;
50853;SDS011;44154;45.506;-122.806;2022-12-18T08:27:41;4.70;;;3.67;;
50853;SDS011;44154;45.506;-122.806;2022-12-18T08:30:07;5.47;;;4.10;;
50853;SDS011;44154;45.506;-122.806;2022-12-18T08:32:34;5.18;;;4.05;;
50853;SDS011;44154;45.506;-122.806;2022-12-18T08:35:00;4.50;;;3.83;;
50853;SDS011;44154;45.506;-122.806;2022-12-18T08:37:27;5.47;;;4.15;;
50853;SDS011;44154;45.506;-122.806;2022-12-18T08:39:53;4.60;;;3.62;;
50853;SDS011;44154;45.506;-122.806;2022-12-18T08:42:19;3.90;;;2.92;;
50853;SDS011;44154;45.506;-122.806;2022-12-18T08:45:03;3.70;;;3.08;;
50853;SDS011;44154;45.506;-122.806;2022-12-18T08:47:30;3.63;;;3.03;;
50853;SDS011;44154;45.506;-122.806;2022-12-18T08:49:56;3.55;;;2.85;;
50853;SDS011;44154;45.506;-122.806;2022-12-18T08:52:22;4.25;;;3.20;;
50853;SDS011;44154;45.506;-122.806;2022-12-18T08:54:48;4.32;;;3.28;;
50853;SDS011;44154;45.506;-122.806;2022-12-18T08:57:14;4.90;;;3.28;;
50853;SDS011;44154;45.506;-122.806;2022-12-18T08:59:41;3.92;;;3.28;;
50853;SDS011;44154;45.506;-122.806;2022-12-18T09:02:10;3.80;;;3.15;;
50853;SDS011;44154;45.506;-122.806;2022-12-18T09:04:37;4.70;;;3.42;;
50853;SDS011;44154;45.506;-122.806;2022-12-18T09:07:04;4.30;;;3.15;;
50853;SDS011;44154;45.506;-122.806;2022-12-18T09:09:31;5.03;;;3.30;;
50853;SDS011;44154;45.506;-122.806;2022-12-18T09:11:57;3.03;;;2.60;;
50853;SDS011;44154;45.506;-122.806;2022-12-18T09:14:24;3.00;;;2.40;;
50853;SDS011;44154;45.506;-122.806;2022-12-18T09:16:50;3.50;;;2.80;;
50853;SDS011;44154;45.506;-122.806;2022-12-18T09:19:16;3.72;;;2.85;;
50853;SDS011;44154;45.506;-122.806;2022-12-18T09:21:42;3.33;;;2.60;;
50853;SDS011;44154;45.506;-122.806;2022-12-18T09:24:09;4.10;;;3.05;;
50853;SDS011;44154;45.506;-122.806;2022-12-18T09:26:38;3.50;;;2.80;;
50853;SDS011;44154;45.506;-122.806;2022-12-18T09:29:05;3.45;;;2.75;;
50853;SDS011;44154;45.506;-122.806;2022-12-18T09:31:32;3.80;;;2.78;;
50853;SDS011;44154;45.506;-122.806;2022-12-18T09:33:59;4.32;;;3.05;;
50853;SDS011;44154;45.506;-122.806;2022-12-18T09:36:25;3.60;;;2.72;;
50853;SDS011;44154;45.506;-122.806;2022-12-18T09:38:51;3.10;;;2.50;;
50853;SDS011;44154;45.506;-122.806;2022-12-18T09:47:06;3.30;;;2.70;;
50853;SDS011;44154;45.506;-122.806;2022-12-18T09:50:01;3.78;;;2.53;;
50853;SDS011;44154;45.506;-122.806;2022-12-18T09:52:34;3.22;;;2.60;;
50853;SDS011;44154;45.506;-122.806;2022-12-18T09:55:12;4.10;;;2.70;;
50853;SDS011;44154;45.506;-122.806;2022-12-18T09:57:42;3.40;;;2.50;;
50853;SDS011;44154;45.506;-122.806;2022-12-18T10:00:19;4.00;;;2.63;;
50853;SDS011;44154;45.506;-122.806;2022-12-18T10:02:47;3.22;;;2.50;;
50853;SDS011;44154;45.506;-122.806;2022-12-18T10:05:20;4.10;;;2.78;;
50853;SDS011;44154;45.506;-122.806;2022-12-18T10:10:32;6.07;;;2.75;;
50853;SDS011;44154;45.506;-122.806;2022-12-18T10:19:15;3.90;;;2.40;;
50853;SDS011;44154;45.506;-122.806;2022-12-18T10:22:18;3.17;;;2.50;;
50853;SDS011;44154;45.506;-122.806;2022-12-18T10:24:50;5.95;;;2.92;;
50853;SDS011;44154;45.506;-122.806;2022-12-18T10:27:25;5.38;;;2.63;;
50853;SDS011;44154;45.506;-122.806;2022-12-18T10:29:53;5.55;;;2.90;;
50853;SDS011;44154;45.506;-122.806;2022-12-18T10:32:23;4.13;;;3.00;;
50853;SDS011;44154;45.506;-122.806;2022-12-18T10:34:52;3.15;;;2.42;;
50853;SDS011;44154;45.506;-122.806;2022-12-18T10:37:22;4.05;;;2.30;;
50853;SDS011;44154;45.506;-122.806;2022-12-18T10:40:14;4.43;;;2.75;;
50853;SDS011;44154;45.506;-122.806;2022-12-18T10:42:41;3.10;;;2.28;;
50853;SDS011;44154;45.506;-122.806;2022-12-18T10:45:14;2.83;;;1.90;;
50853;SDS011;44154;45.506;-122.806;2022-12-18T10:47:46;3.63;;;2.08;;
50853;SDS011;44154;45.506;-122.806;2022-12-18T10:50:33;2.90;;;1.97;;
50853;SDS011;44154;45.506;-122.806;2022-12-18T10:53:03;2.58;;;1.88;;
50853;SDS011;44154;45.506;-122.806;2022-12-18T10:55:37;3.40;;;2.30;;
50853;SDS011;44154;45.506;-122.806;2022-12-18T10:58:24;3.42;;;2.15;;
50853;SDS011;44154;45.506;-122.806;2022-12-18T11:03:42;3.92;;;2.40;;
50853;SDS011;44154;45.506;-122.806;2022-12-18T11:06:11;3.15;;;2.25;;
50853;SDS011;44154;45.506;-122.806;2022-12-18T11:11:53;2.90;;;1.92;;
50853;SDS011;44154;45.506;-122.806;2022-12-18T11:16:59;2.50;;;1.67;;
50853;SDS011;44154;45.506;-122.806;2022-12-18T11:27:41;3.40;;;2.20;;
50853;SDS011;44154;45.506;-122.806;2022-12-18T11:30:22;2.85;;;2.03;;
50853;SDS011;44154;45.506;-122.806;2022-12-18T11:33:04;3.38;;;2.30;;
50853;SDS011;44154;45.506;-122.806;2022-12-18T11:35:37;3.20;;;2.10;;
50853;SDS011;44154;45.506;-122.806;2022-12-18T11:38:25;2.53;;;1.80;;
50853;SDS011;44154;45.506;-122.806;2022-12-18T11:44:19;2.97;;;1.97;;
50853;SDS011;44154;45.506;-122.806;2022-12-18T11:47:04;1.83;;;1.60;;
50853;SDS011;44154;45.506;-122.806;2022-12-18T11:49:55;2.63;;;2.00;;
50853;SDS011;44154;45.506;-122.806;2022-12-18T11:52:26;2.20;;;1.73;;
50853;SDS011;44154;45.506;-122.806;2022-12-18T11:58:19;2.38;;;1.70;;
50853;SDS011;44154;45.506;-122.806;2022-12-18T12:06:32;2.83;;;1.73;;
50853;SDS011;44154;45.506;-122.806;2022-12-18T12:22:59;2.50;;;1.70;;
50853;SDS011;44154;45.506;-122.806;2022-12-18T12:28:50;2.22;;;1.58;;
50853;SDS011;44154;45.506;-122.806;2022-12-18T12:34:18;2.30;;;1.50;;
50853;SDS011;44154;45.506;-122.806;2022-12-18T12:39:37;2.08;;;1.50;;
50853;SDS011;44154;45.506;-122.806;2022-12-18T12:45:18;2.33;;;1.50;;
50853;SDS011;44154;45.506;-122.806;2022-12-18T12:47:49;2.63;;;1.50;;
50853;SDS011;44154;45.506;-122.806;2022-12-18T12:50:18;2.08;;;1.50;;
50853;SDS011;44154;45.506;-122.806;2022-12-18T12:52:50;1.95;;;1.45;;
50853;SDS011;44154;45.506;-122.806;2022-12-18T12:55:21;2.22;;;1.30;;
50853;SDS011;44154;45.506;-122.806;2022-12-18T12:57:55;1.70;;;1.27;;
50853;SDS011;44154;45.506;-122.806;2022-12-18T13:00:23;2.28;;;1.67;;
50853;SDS011;44154;45.506;-122.806;2022-12-18T13:05:56;2.15;;;1.20;;
50853;SDS011;44154;45.506;-122.806;2022-12-18T13:08:50;1.95;;;1.30;;
50853;SDS011;44154;45.506;-122.806;2022-12-18T13:14:37;1.20;;;0.90;;
50853;SDS011;44154;45.506;-122.806;2022-12-18T13:19:43;1.67;;;1.40;;
50853;SDS011;44154;45.506;-122.806;2022-12-18T13:22:22;1.77;;;1.35;;
50853;SDS011;44154;45.506;-122.806;2022-12-18T13:25:00;2.53;;;1.60;;
50853;SDS011;44154;45.506;-122.806;2022-12-18T13:38:22;1.60;;;1.08;;
50853;SDS011;44154;45.506;-122.806;2022-12-18T13:40:55;1.63;;;1.23;;
50853;SDS011;44154;45.506;-122.806;2022-12-18T13:43:23;1.55;;;1.15;;
50853;SDS011;44154;45.506;-122.806;2022-12-18T13:48:40;1.25;;;0.98;;
50853;SDS011;44154;45.506;-122.806;2022-12-18T13:51:17;1.45;;;1.20;;
50853;SDS011;44154;45.506;-122.806;2022-12-18T13:53:47;1.70;;;1.15;;
50853;SDS011;44154;45.506;-122.806;2022-12-18T13:56:17;1.23;;;1.02;;
50853;SDS011;44154;45.506;-122.806;2022-12-18T13:58:47;1.17;;;0.85;;
50853;SDS011;44154;45.506;-122.806;2022-12-18T14:01:36;1.17;;;1.02;;
50853;SDS011;44154;45.506;-122.806;2022-12-18T14:04:19;1.30;;;0.98;;
50853;SDS011;44154;45.506;-122.806;2022-12-18T14:07:12;1.80;;;1.00;;
50853;SDS011;44154;45.506;-122.806;2022-12-18T14:09:43;1.20;;;0.93;;
50853;SDS011;44154;45.506;-122.806;2022-12-18T14:12:17;1.77;;;1.08;;
50853;SDS011;44154;45.506;-122.806;2022-12-18T14:15:11;1.73;;;1.00;;
50853;SDS011;44154;45.506;-122.806;2022-12-18T14:17:49;1.27;;;0.98;;
50853;SDS011;44154;45.506;-122.806;2022-12-18T14:20:36;1.48;;;1.00;;
50853;SDS011;44154;45.506;-122.806;2022-12-18T14:23:23;0.98;;;0.75;;
50853;SDS011;44154;45.506;-122.806;2022-12-18T14:28:50;0.98;;;0.80;;
50853;SDS011;44154;45.506;-122.806;2022-12-18T14:31:27;1.30;;;0.90;;
50853;SDS011;44154;45.506;-122.806;2022-12-18T14:33:55;1.42;;;0.90;;
50853;SDS011;44154;45.506;-122.806;2022-12-18T14:36:25;1.05;;;0.73;;
50853;SDS011;44154;45.506;-122.806;2022-12-18T14:38:54;1.90;;;0.73;;
50853;SDS011;44154;45.506;-122.806;2022-12-18T14:41:24;3.22;;;1.00;;
50853;SDS011;44154;45.506;-122.806;2022-12-18T14:43:52;1.67;;;0.85;;
50853;SDS011;44154;45.506;-122.806;2022-12-18T14:46:30;1.35;;;0.80;;
50853;SDS011;44154;45.506;-122.806;2022-12-18T14:48:58;1.30;;;0.70;;
50853;SDS011;44154;45.506;-122.806;2022-12-18T14:51:30;3.37;;;0.90;;
50853;SDS011;44154;45.506;-122.806;2022-12-18T14:53:59;1.13;;;0.75;;
50853;SDS011;44154;45.506;-122.806;2022-12-18T14:56:28;0.70;;;0.70;;
50853;SDS011;44154;45.506;-122.806;2022-12-18T14:59:01;1.52;;;0.90;;
50853;SDS011;44154;45.506;-122.806;2022-12-18T15:01:37;1.02;;;0.80;;
50853;SDS011;44154;45.506;-122.806;2022-12-18T15:04:27;1.30;;;0.80;;
50853;SDS011;44154;45.506;-122.806;2022-12-18T15:13:23;1.20;;;0.73;;
50853;SDS011;44154;45.506;-122.806;2022-12-18T15:18:04;1.75;;;0.73;;
50853;SDS011;44154;45.506;-122.806;2022-12-18T15:23:17;1.20;;;0.70;;
50853;SDS011;44154;45.506;-122.806;2022-12-18T15:26:08;1.20;;;0.63;;
50853;SDS011;44154;45.506;-122.806;2022-12-18T15:28:39;3.63;;;0.70;;
50853;SDS011;44154;45.506;-122.806;2022-12-18T15:36:15;2.83;;;0.93;;
50853;SDS011;44154;45.506;-122.806;2022-12-18T15:38:49;2.28;;;0.80;;
50853;SDS011;44154;45.506;-122.806;2022-12-18T15:41:17;6.72;;;0.75;;
50853;SDS011;44154;45.506;-122.806;2022-12-18T15:43:47;4.75;;;1.20;;
50853;SDS011;44154;45.506;-122.806;2022-12-18T15:46:16;3.45;;;0.85;;
50853;SDS011;44154;45.506;-122.806;2022-12-18T15:48:45;2.08;;;0.70;;
50853;SDS011;44154;45.506;-122.806;2022-12-18T15:51:18;3.63;;;0.70;;
50853;SDS011;44154;45.506;-122.806;2022-12-18T15:53:47;5.97;;;1.00;;
50853;SDS011;44154;45.506;-122.806;2022-12-18T15:56:16;3.97;;;0.82;;
50853;SDS011;44154;45.506;-122.806;2022-12-18T15:59:01;3.90;;;0.80;;
50853;SDS011;44154;45.506;-122.806;2022-12-18T16:01:28;2.67;;;0.80;;
50853;SDS011;44154;45.506;-122.806;2022-12-18T16:03:55;1.58;;;0.70;;
50853;SDS011;44154;45.506;-122.806;2022-12-18T16:06:22;1.67;;;0.60;;
50853;SDS011;44154;45.506;-122.806;2022-12-18T16:08:49;1.48;;;0.73;;
50853;SDS011;44154;45.506;-122.806;2022-12-18T16:11:20;1.58;;;1.00;;
50853;SDS011;44154;45.506;-122.806;2022-12-18T16:16:47;2.67;;;0.98;;
50853;SDS011;44154;45.506;-122.806;2022-12-18T16:19:15;2.65;;;0.77;;
50853;SDS011;44154;45.506;-122.806;2022-12-18T16:21:42;3.65;;;1.00;;
50853;SDS011;44154;45.506;-122.806;2022-12-18T16:24:18;2.15;;;1.00;;
50853;SDS011;44154;45.506;-122.806;2022-12-18T16:26:49;3.03;;;1.63;;
50853;SDS011;44154;45.506;-122.806;2022-12-18T16:29:17;3.17;;;1.48;;
50853;SDS011;44154;45.506;-122.806;2022-12-18T16:31:44;5.55;;;2.10;;
50853;SDS011;44154;45.506;-122.806;2022-12-18T16:34:29;4.57;;;2.70;;
50853;SDS011;44154;45.506;-122.806;2022-12-18T16:36:58;3.65;;;2.10;;
50853;SDS011;44154;45.506;-122.806;2022-12-18T16:39:26;3.47;;;1.90;;
50853;SDS011;44154;45.506;-122.806;2022-12-18T16:41:52;2.50;;;1.40;;
50853;SDS011;44154;45.506;-122.806;2022-12-18T16:44:19;2.13;;;1.52;;
50853;SDS011;44154;45.506;-122.806;2022-12-18T16:46:45;3.83;;;1.83;;
50853;SDS011;44154;45.506;-122.806;2022-12-18T16:49:12;2.83;;;1.65;;
50853;SDS011;44154;45.506;-122.806;2022-12-18T16:51:42;2.38;;;1.50;;
50853;SDS011;44154;45.506;-122.806;2022-12-18T16:54:09;2.63;;;1.70;;
50853;SDS011;44154;45.506;-122.806;2022-12-18T16:56:35;2.45;;;1.52;;